Time;durP1;ratioP1;P1;durP2;ratioP2;P2;SDS_P1;SDS_P2;PMS_P1;PMS_P2;Temp;Humidity;BMP_temperature;BMP_pressure;BME280_temperature;BME280_humidity;BME280_pressure;Samples;Min_cycle;Max_cycle;Signal;HPM_P1;HPM_P2
2022/11/25 00:01:31;;;;;;;10.75;2.35;;;;;;;9.01;91.38;100875.03;5024906;28;20033;-66
2022/11/25 00:03:57;;;;;;;12.38;2.55;;;;;;;9.05;91.26;100878.59;5025518;28;20026;-66
2022/11/25 00:06:30;;;;;;;12.75;2.80;;;;;;;9.05;91.51;100876.00;5037299;28;20157;-66
2022/11/25 00:09:00;;;;;;;10.60;2.58;;;;;;;9.07;91.55;100871.72;5036817;28;20092;-66
2022/11/25 00:11:26;;;;;;;9.93;2.50;;;;;;;9.07;91.58;100873.44;5042591;28;20087;-67
2022/11/25 00:13:52;;;;;;;7.40;2.22;;;;;;;9.08;91.38;100870.91;5036752;28;20283;-67
2022/11/25 00:16:19;;;;;;;12.90;2.85;;;;;;;9.09;91.10;100872.66;5032399;28;20013;-66
2022/11/25 00:18:48;;;;;;;16.92;3.15;;;;;;;9.08;91.34;100870.91;5031699;28;20027;-66
2022/11/25 00:21:17;;;;;;;14.65;3.03;;;;;;;9.09;91.47;100864.84;5037862;28;20238;-67
2022/11/25 00:23:43;;;;;;;10.43;2.85;;;;;;;9.10;91.61;100860.56;5037210;28;20022;-67
2022/11/25 00:26:11;;;;;;;13.07;2.75;;;;;;;9.10;91.62;100858.81;5029555;28;20030;-66
2022/11/25 00:28:37;;;;;;;12.77;2.35;;;;;;;9.11;91.66;100855.41;5034987;28;20030;-67
2022/11/25 00:31:08;;;;;;;10.60;2.50;;;;;;;9.11;91.48;100855.41;5017556;28;20283;-66
2022/11/25 00:33:33;;;;;;;14.70;2.60;;;;;;;9.10;91.71;100848.44;5040564;28;20055;-66
2022/11/25 00:36:06;;;;;;;14.10;2.50;;;;;;;9.11;91.82;100852.81;5040849;28;20041;-66
2022/11/25 00:38:32;;;;;;;10.40;2.50;;;;;;;9.11;91.95;100858.00;5040208;28;20025;-66
2022/11/25 00:46:26;;;;;;;11.82;2.80;;;;;;;9.12;91.79;100851.94;5027493;28;20029;-67
2022/11/25 00:48:51;;;;;;;11.32;3.15;;;;;;;9.12;91.68;100845.88;5033522;28;20041;-67
2022/11/25 00:51:17;;;;;;;17.00;2.78;;;;;;;9.10;91.77;100845.84;5036106;28;20080;-67
2022/11/25 00:53:42;;;;;;;10.32;2.33;;;;;;;9.11;91.91;100841.50;5042027;28;20179;-67
2022/11/25 00:56:14;;;;;;;10.98;2.47;;;;;;;9.10;92.04;100843.22;5031570;28;20018;-67
2022/11/25 00:58:43;;;;;;;10.15;2.15;;;;;;;9.09;92.02;100844.06;5044779;28;20044;-64
2022/11/25 01:01:09;;;;;;;;;;;;;;;9.13;91.93;100858.91;5034444;28;20093;-64
2022/11/25 01:03:36;;;;;;;9.13;2.35;;;;;;;9.11;92.21;100854.50;5037160;28;20092;-64
2022/11/25 01:06:09;;;;;;;7.95;2.22;;;;;;;9.10;92.29;100864.03;5045650;28;20017;-64
2022/11/25 01:08:36;;;;;;;15.07;3.10;;;;;;;9.12;92.45;100864.06;5040982;28;20080;-65
2022/11/25 01:11:04;;;;;;;9.77;2.28;;;;;;;9.10;92.56;100855.34;5045038;28;20231;-64
2022/11/25 01:13:30;;;;;;;12.75;2.85;;;;;;;9.11;92.51;100852.81;5043105;28;20025;-65
2022/11/25 01:15:55;;;;;;;15.98;2.88;;;;;;;9.11;92.64;100855.41;5043448;28;20036;-64
2022/11/25 01:18:20;;;;;;;12.23;2.55;;;;;;;9.14;92.70;100860.69;5036730;28;20088;-64
2022/11/25 01:20:46;;;;;;;13.32;2.30;;;;;;;9.14;92.73;100858.09;5034648;28;20025;-64
2022/11/25 01:23:11;;;;;;;9.55;2.33;;;;;;;9.15;92.52;100854.66;5035227;28;20014;-65
2022/11/25 01:25:37;;;;;;;10.65;2.38;;;;;;;9.17;92.39;100860.78;5037656;28;20202;-64
2022/11/25 01:28:03;;;;;;;11.27;3.08;;;;;;;9.18;92.49;100864.25;5042107;28;20346;-66
2022/11/25 01:30:29;;;;;;;12.75;2.80;;;;;;;9.17;92.47;100860.78;5038104;28;20308;-67
2022/11/25 01:32:54;;;;;;;11.20;2.83;;;;;;;9.17;92.95;100868.56;5045093;28;20033;-67
2022/11/25 01:35:19;;;;;;;10.75;2.33;;;;;;;9.17;92.66;100871.16;5037122;28;20172;-66
2022/11/25 01:37:45;;;;;;;10.10;2.45;;;;;;;9.21;92.53;100875.63;5046033;28;20183;-67
2022/11/25 01:40:10;;;;;;;10.48;2.47;;;;;;;9.22;92.80;100874.81;5041353;28;20059;-67
2022/11/25 01:42:42;;;;;;;10.82;3.08;;;;;;;9.23;92.80;100873.94;5033785;28;20248;-67
2022/11/25 01:45:22;;;;;;;11.02;2.70;;;;;;;9.26;92.89;100885.28;5040577;28;20036;-66
2022/11/25 01:47:55;;;;;;;11.68;2.72;;;;;;;9.26;92.71;100887.88;5042788;28;20017;-67
2022/11/25 01:50:23;;;;;;;12.93;2.80;;;;;;;9.29;92.86;100887.97;5031204;28;20276;-67
2022/11/25 01:52:50;;;;;;;13.60;3.38;;;;;;;9.30;92.53;100894.91;5040439;28;20042;-67
2022/11/25 01:55:19;;;;;;;11.27;2.45;;;;;;;9.30;92.87;100897.50;5042830;28;20048;-67
2022/11/25 01:57:51;;;;;;;11.80;2.92;;;;;;;9.32;92.89;100901.06;5037364;28;20088;-66
2022/11/25 02:00:17;;;;;;;11.88;2.53;;;;;;;9.32;92.66;100912.34;5041464;28;20175;-67
2022/11/25 02:02:42;;;;;;;11.38;2.63;;;;;;;9.31;92.76;100907.09;5040034;28;20028;-67
2022/11/25 02:05:09;;;;;;;11.48;2.28;;;;;;;9.31;92.84;100914.91;5041353;28;20022;-67
2022/11/25 02:07:38;;;;;;;13.98;2.80;;;;;;;9.32;93.10;100916.66;5047086;28;20183;-65
2022/11/25 02:10:07;;;;;;;10.30;2.65;;;;;;;9.33;93.12;100921.03;5039610;28;20024;-65
2022/11/25 02:12:34;;;;;;;11.38;2.80;;;;;;;9.34;93.08;100922.78;5026075;28;20059;-65
2022/11/25 02:15:00;;;;;;;15.32;3.10;;;;;;;9.33;93.31;100913.25;5025199;28;20291;-64
2022/11/25 02:17:25;;;;;;;10.43;2.80;;;;;;;9.33;93.15;100924.50;5025438;28;20081;-65
2022/11/25 02:20:11;;;;;;;9.52;2.70;;;;;;;9.35;93.11;100927.16;5031781;28;20183;-65
2022/11/25 02:23:14;;;;;;;11.25;3.08;;;;;;;9.36;93.37;100935.00;5025647;28;20022;-65
2022/11/25 02:25:42;;;;;;;11.65;2.78;;;;;;;9.37;92.89;100938.47;4978867;28;20056;-65
2022/11/25 02:28:14;;;;;;;12.38;2.65;;;;;;;9.37;93.30;100939.38;5024251;28;20036;-64
2022/11/25 02:30:40;;;;;;;11.80;2.83;;;;;;;9.38;93.22;100942.84;5029402;28;20048;-65
2022/11/25 02:33:06;;;;;;;12.18;2.60;;;;;;;9.37;93.81;100935.88;5024239;28;20056;-65
2022/11/25 02:35:37;;;;;;;10.95;3.10;;;;;;;9.35;94.07;100946.22;5025477;28;20025;-65
2022/11/25 02:38:08;;;;;;;10.73;2.42;;;;;;;9.32;94.65;100940.94;5036510;28;20044;-64
2022/11/25 02:40:38;;;;;;;11.40;2.67;;;;;;;9.30;94.99;100944.31;5038444;28;20745;-65
2022/11/25 02:43:03;;;;;;;9.95;2.45;;;;;;;9.28;94.92;100948.59;5025828;28;20037;-65
2022/11/25 02:45:38;;;;;;;15.00;3.10;;;;;;;9.25;95.56;100946.78;5031148;28;20018;-65
2022/11/25 02:48:04;;;;;;;11.65;2.50;;;;;;;9.23;95.95;100953.66;5039498;28;20090;-65
2022/11/25 02:50:29;;;;;;;11.95;2.90;;;;;;;9.20;96.35;100954.44;5012467;28;20048;-64
2022/11/25 02:52:54;;;;;;;10.98;2.55;;;;;;;9.16;96.61;100949.13;5028883;28;20104;-64
2022/11/25 02:55:19;;;;;;;9.65;2.38;;;;;;;9.15;96.54;100939.53;5034572;28;20017;-64
2022/11/25 02:57:45;;;;;;;11.48;2.63;;;;;;;9.12;97.14;100944.66;5013653;28;20029;-64
2022/11/25 03:00:11;;;;;;;10.27;2.30;;;;;;;9.10;97.26;100938.53;5038559;28;20017;-64
2022/11/25 03:02:36;;;;;;;11.20;2.58;;;;;;;9.06;97.48;100921.94;5031505;28;20026;-64
2022/11/25 03:05:02;;;;;;;6.95;2.15;;;;;;;9.02;98.02;100887.19;5035045;28;20219;-64
2022/11/25 03:07:28;;;;;;;10.30;2.47;;;;;;;8.97;98.66;100887.88;5037870;28;20340;-64
2022/11/25 03:09:53;;;;;;;7.55;2.05;;;;;;;8.91;98.89;100864.28;5042600;28;20032;-64
2022/11/25 03:12:19;;;;;;;10.15;2.00;;;;;;;8.84;99.30;100871.91;5035565;28;20017;-64
2022/11/25 03:14:44;;;;;;;12.13;2.30;;;;;;;8.79;99.69;100878.69;5038279;28;20263;-64
2022/11/25 03:17:10;;;;;;;10.20;2.40;;;;;;;8.76;100.00;100882.88;5029418;28;20044;-64
2022/11/25 03:19:35;;;;;;;10.00;2.28;;;;;;;8.73;100.00;100904.44;5029480;28;20010;-64
2022/11/25 03:22:00;;;;;;;9.00;1.95;;;;;;;8.74;99.90;100916.63;5035419;28;20017;-64
2022/11/25 03:24:26;;;;;;;9.90;2.28;;;;;;;8.74;100.00;100921.81;5042973;28;20025;-64
2022/11/25 03:26:51;;;;;;;7.28;2.10;;;;;;;8.74;100.00;100924.41;5043957;28;20029;-64
2022/11/25 03:29:16;;;;;;;8.93;1.70;;;;;;;8.74;100.00;100914.03;5038306;28;20151;-64
2022/11/25 03:31:42;;;;;;;12.30;2.47;;;;;;;8.71;100.00;100900.94;5034979;28;20100;-64
2022/11/25 03:34:07;;;;;;;8.98;2.15;;;;;;;8.69;100.00;100916.47;5042768;28;20021;-64
2022/11/25 03:36:32;;;;;;;6.22;1.88;;;;;;;8.70;100.00;100925.13;5034000;28;20260;-67
2022/11/25 03:38:57;;;;;;;8.65;2.13;;;;;;;8.70;100.00;100952.03;5035158;28;20068;-67
2022/11/25 03:41:23;;;;;;;8.27;2.00;;;;;;;8.69;100.00;100950.25;5039428;28;20009;-67
2022/11/25 03:43:48;;;;;;;7.13;1.95;;;;;;;8.70;100.00;100956.31;5030536;28;20038;-67
2022/11/25 03:46:14;;;;;;;9.43;2.13;;;;;;;8.67;100.00;100962.28;5032859;28;20067;-67
2022/11/25 03:48:39;;;;;;;6.30;1.65;;;;;;;8.65;100.00;100953.56;5028261;28;20049;-66
2022/11/25 03:51:05;;;;;;;8.40;1.95;;;;;;;8.67;100.00;100964.00;5028059;28;20045;-67
2022/11/25 03:53:30;;;;;;;7.57;2.00;;;;;;;8.64;100.00;100956.13;5029346;28;20028;-67
2022/11/25 03:55:55;;;;;;;7.82;1.90;;;;;;;8.63;100.00;100960.44;5025416;28;20032;-67
2022/11/25 03:58:20;;;;;;;7.07;1.52;;;;;;;8.63;100.00;100962.13;5039886;28;20034;-67
2022/11/25 04:00:46;;;;;;;8.40;1.90;;;;;;;8.60;100.00;100973.28;5031634;28;20028;-67
2022/11/25 04:03:11;;;;;;;9.95;1.75;;;;;;;8.60;100.00;100977.63;5024620;28;20013;-67
2022/11/25 04:05:36;;;;;;;10.73;1.67;;;;;;;8.57;100.00;100980.13;5036799;28;20163;-67
2022/11/25 04:08:02;;;;;;;7.05;1.55;;;;;;;8.53;100.00;100974.81;5039984;28;20052;-67
2022/11/25 04:10:27;;;;;;;6.22;1.50;;;;;;;8.50;100.00;100977.31;5031135;28;20271;-67
2022/11/25 04:12:53;;;;;;;5.80;1.70;;;;;;;8.49;100.00;100985.94;5034226;28;20034;-66
2022/11/25 04:15:19;;;;;;;4.25;1.13;;;;;;;8.48;100.00;100978.97;5030779;28;20060;-66
2022/11/25 04:17:44;;;;;;;6.22;1.30;;;;;;;8.44;100.00;100982.28;5031255;28;20017;-66
2022/11/25 04:20:11;;;;;;;4.63;1.33;;;;;;;8.41;100.00;100983.88;5040632;28;20048;-67
2022/11/25 04:22:36;;;;;;;5.25;1.13;;;;;;;8.39;100.00;100989.00;5042030;28;20025;-67
2022/11/25 04:25:02;;;;;;;7.28;1.30;;;;;;;8.34;99.93;101001.84;5041193;28;20029;-67
2022/11/25 04:27:27;;;;;;;7.88;1.35;;;;;;;8.31;99.97;101011.22;5037280;28;20033;-67
2022/11/25 04:29:52;;;;;;;8.05;1.33;;;;;;;8.28;99.75;101005.91;5018020;28;20115;-67
2022/11/25 04:32:18;;;;;;;6.93;1.65;;;;;;;8.25;99.78;101005.81;5023542;28;20026;-67
2022/11/25 04:34:43;;;;;;;5.10;1.38;;;;;;;8.22;99.51;101023.88;5036382;28;20028;-67
2022/11/25 04:37:08;;;;;;;4.38;1.02;;;;;;;8.21;99.59;101022.09;5035735;28;20303;-66
2022/11/25 04:39:33;;;;;;;3.00;1.05;;;;;;;8.19;99.54;101025.53;5027499;28;20021;-66
2022/11/25 04:44:43;;;;;;;6.45;1.30;;;;;;;8.18;99.52;101034.16;5017926;28;20132;-67
2022/11/25 04:47:08;;;;;;;4.70;1.13;;;;;;;8.17;100.00;101037.56;5033816;28;20025;-64
2022/11/25 04:49:33;;;;;;;6.50;1.30;;;;;;;8.17;99.90;101028.91;5028899;28;20041;-64
2022/11/25 04:51:59;;;;;;;4.50;1.23;;;;;;;8.16;99.85;101032.31;5030227;28;20024;-64
2022/11/25 04:54:24;;;;;;;6.15;1.98;;;;;;;8.14;100.00;101034.88;5028408;28;20029;-64
2022/11/25 04:56:50;;;;;;;6.60;1.40;;;;;;;8.14;100.00;101039.16;5029789;28;20100;-64
2022/11/25 05:01:59;;;;;;;4.07;1.17;;;;;;;8.09;100.00;101041.59;5034152;28;20092;-64
2022/11/25 05:04:24;;;;;;;4.75;1.17;;;;;;;8.07;100.00;101043.25;5031516;28;20013;-64
2022/11/25 05:06:50;;;;;;;4.72;1.20;;;;;;;8.06;100.00;101045.78;5028115;28;20052;-64
2022/11/25 05:09:16;;;;;;;4.65;1.30;;;;;;;8.04;100.00;101050.94;5011306;28;20295;-64
2022/11/25 05:11:42;;;;;;;7.47;1.20;;;;;;;8.01;100.00;101051.69;5029356;28;20233;-64
2022/11/25 05:14:07;;;;;;;4.75;1.30;;;;;;;8.01;100.00;101053.41;5035380;28;20106;-64
2022/11/25 05:16:34;;;;;;;7.03;1.95;;;;;;;7.98;100.00;101053.28;5038159;28;20033;-64
2022/11/25 05:18:59;;;;;;;5.18;1.48;;;;;;;7.97;100.00;101059.31;5029217;28;20051;-64
2022/11/25 05:21:24;;;;;;;5.57;1.40;;;;;;;7.93;100.00;101053.09;5025881;28;20014;-64
2022/11/25 05:23:49;;;;;;;5.88;1.75;;;;;;;7.90;100.00;101053.00;5024618;28;20188;-64
2022/11/25 05:26:16;;;;;;;5.43;1.60;;;;;;;7.87;100.00;101057.19;5021539;28;20072;-64
2022/11/25 05:28:41;;;;;;;4.95;1.58;;;;;;;7.83;100.00;101051.91;5006457;28;20026;-64
2022/11/25 05:31:06;;;;;;;5.38;1.80;;;;;;;7.79;100.00;101057.78;5024415;28;20036;-64
2022/11/25 05:33:31;;;;;;;5.25;1.60;;;;;;;7.77;100.00;101058.56;5024812;28;20033;-64
2022/11/25 05:35:59;;;;;;;5.75;1.67;;;;;;;7.74;100.00;101064.50;5022835;28;20010;-64
2022/11/25 05:38:25;;;;;;;5.97;1.80;;;;;;;7.73;100.00;101070.50;5025996;28;20037;-64
2022/11/25 05:40:50;;;;;;;6.28;1.80;;;;;;;7.71;100.00;101066.97;5021348;28;20025;-64
2022/11/25 05:43:16;;;;;;;8.57;2.13;;;;;;;7.71;100.00;101074.75;5022279;28;20271;-64
2022/11/25 05:45:41;;;;;;;7.68;2.08;;;;;;;7.68;100.00;101072.06;5026662;28;20052;-64
2022/11/25 05:48:07;;;;;;;6.60;2.20;;;;;;;7.66;100.00;101068.50;5040132;28;20293;-67
2022/11/25 05:50:32;;;;;;;5.97;1.85;;;;;;;7.65;100.00;101078.00;5044945;28;20045;-67
2022/11/25 05:52:57;;;;;;;6.82;2.13;;;;;;;7.63;100.00;101076.16;5032511;28;20177;-67
2022/11/25 05:55:22;;;;;;;7.15;2.10;;;;;;;7.59;100.00;101074.25;5031530;28;20021;-66
2022/11/25 05:57:48;;;;;;;8.93;2.10;;;;;;;7.56;100.00;101084.53;5038599;28;20349;-67
2022/11/25 06:00:13;;;;;;;8.75;2.05;;;;;;;7.55;100.00;101082.78;5042665;28;20147;-66
2022/11/25 06:02:39;;;;;;;8.85;2.38;;;;;;;7.52;100.00;101086.13;5048437;28;20152;-67
2022/11/25 06:05:04;;;;;;;7.68;2.45;;;;;;;7.52;100.00;101095.59;5033700;28;20184;-67
2022/11/25 06:07:29;;;;;;;7.53;2.40;;;;;;;7.51;100.00;101099.91;5041048;28;20030;-66
2022/11/25 06:09:55;;;;;;;8.80;2.58;;;;;;;7.48;100.00;101095.47;5044048;28;20021;-67
2022/11/25 06:12:21;;;;;;;7.60;2.85;;;;;;;7.47;100.00;101104.09;5034707;28;20021;-67
2022/11/25 06:14:46;;;;;;;10.85;2.90;;;;;;;7.43;100.00;101096.09;5029615;28;20018;-66
2022/11/25 06:17:11;;;;;;;7.72;2.65;;;;;;;7.42;100.00;101100.41;5017072;28;20071;-67
2022/11/25 06:19:36;;;;;;;8.07;2.22;;;;;;;7.42;100.00;101100.41;5039804;28;20033;-67
2022/11/25 06:22:02;;;;;;;9.48;3.03;;;;;;;7.42;100.00;101108.19;5036579;28;20212;-66
2022/11/25 06:24:27;;;;;;;8.18;3.28;;;;;;;7.41;100.00;101115.91;5037990;28;20028;-67
2022/11/25 06:26:52;;;;;;;8.38;3.08;;;;;;;7.41;100.00;101129.75;5025550;28;20030;-67
2022/11/25 06:29:18;;;;;;;9.00;3.13;;;;;;;7.41;100.00;101121.97;5012337;28;20034;-67
2022/11/25 06:31:43;;;;;;;7.88;4.00;;;;;;;7.40;100.00;101122.81;5026825;28;20032;-67
2022/11/25 06:34:08;;;;;;;10.07;3.45;;;;;;;7.39;100.00;101126.22;5024189;28;20271;-67
2022/11/25 06:36:33;;;;;;;7.95;3.33;;;;;;;7.38;100.00;101133.94;5023986;28;20264;-67
2022/11/25 06:38:59;;;;;;;9.85;3.40;;;;;;;7.35;100.00;101137.28;5027373;28;20037;-66
2022/11/25 06:41:24;;;;;;;12.23;3.88;;;;;;;7.36;100.00;101140.75;5026137;28;20096;-67
2022/11/25 06:43:50;;;;;;;10.20;3.33;;;;;;;7.35;100.00;101139.88;5027293;28;20050;-67
2022/11/25 06:46:17;;;;;;;11.32;4.13;;;;;;;7.33;100.00;101146.72;5028735;28;20067;-67
2022/11/25 06:48:44;;;;;;;11.45;3.50;;;;;;;7.31;100.00;101145.75;5025888;28;20061;-67
2022/11/25 06:51:11;;;;;;;10.18;3.67;;;;;;;7.28;100.00;101143.03;5026425;28;20307;-67
2022/11/25 06:53:37;;;;;;;12.40;4.30;;;;;;;7.27;100.00;101149.03;5024767;28;20022;-67
2022/11/25 06:56:22;;;;;;;12.93;4.03;;;;;;;7.25;100.00;101150.69;5031493;28;20123;-67
2022/11/25 06:58:48;;;;;;;12.18;4.63;;;;;;;7.24;100.00;101146.31;5034381;28;20045;-67
2022/11/25 07:01:21;;;;;;;10.85;4.07;;;;;;;7.24;100.00;101146.31;5032831;28;20018;-67
2022/11/25 07:03:48;;;;;;;11.68;3.63;;;;;;;7.20;100.00;101154.78;5028216;28;20176;-67
2022/11/25 07:06:16;;;;;;;10.07;3.83;;;;;;;7.18;100.00;101159.00;5022515;28;20327;-66
2022/11/25 07:08:42;;;;;;;11.43;4.28;;;;;;;7.15;100.00;101164.94;5041746;28;20117;-67
2022/11/25 07:11:13;;;;;;;9.15;3.42;;;;;;;7.12;100.00;101170.00;5039048;28;20401;-66
2022/11/25 07:13:38;;;;;;;8.35;3.50;;;;;;;7.07;100.00;101169.81;5033873;28;20029;-66
2022/11/25 07:16:05;;;;;;;11.82;3.67;;;;;;;7.03;100.00;101167.91;5041737;28;20153;-67
2022/11/25 07:18:33;;;;;;;9.65;3.58;;;;;;;7.01;100.00;101179.91;5037880;28;20029;-64
2022/11/25 07:21:12;;;;;;;9.93;3.53;;;;;;;6.99;100.00;101181.53;5031800;28;20175;-64
2022/11/25 07:23:38;;;;;;;9.65;3.47;;;;;;;6.97;100.00;101183.19;5041052;28;20021;-64
2022/11/25 07:26:09;;;;;;;8.15;3.28;;;;;;;6.94;100.00;101185.66;5035431;28;20033;-64
2022/11/25 07:28:35;;;;;;;10.85;3.38;;;;;;;6.92;100.00;101197.63;5029150;28;20029;-64
2022/11/25 07:31:10;;;;;;;11.00;3.42;;;;;;;6.90;100.00;101191.50;5029858;28;20143;-64
2022/11/25 07:33:35;;;;;;;9.85;3.28;;;;;;;6.88;100.00;101200.91;5026998;28;20307;-64
2022/11/25 07:36:05;;;;;;;9.38;3.08;;;;;;;6.84;100.00;101206.78;5033857;28;20021;-64
2022/11/25 07:38:32;;;;;;;8.38;3.13;;;;;;;6.83;100.00;101208.47;5029035;28;20028;-64
2022/11/25 07:41:07;;;;;;;11.95;3.35;;;;;;;6.84;100.00;101218.03;5027965;28;20013;-64
2022/11/25 07:43:33;;;;;;;12.07;3.45;;;;;;;6.84;100.00;101224.94;5033135;28;20100;-64
2022/11/25 07:46:13;;;;;;;8.63;3.53;;;;;;;6.84;100.00;101238.75;5033353;28;20028;-64
2022/11/25 07:48:39;;;;;;;10.20;3.10;;;;;;;6.84;100.00;101238.75;5033063;28;20172;-64
2022/11/25 07:51:05;;;;;;;12.60;3.40;;;;;;;6.86;100.00;101251.75;5035789;28;20028;-64
2022/11/25 07:53:30;;;;;;;8.60;3.03;;;;;;;6.86;100.00;101244.00;5027574;28;20180;-64
2022/11/25 07:56:01;;;;;;;10.82;3.67;;;;;;;6.89;100.00;101257.06;5031592;28;20080;-64
2022/11/25 07:58:26;;;;;;;10.90;3.35;;;;;;;6.89;100.00;101254.50;5033400;28;20037;-64
2022/11/25 08:00:51;;;;;;;9.13;3.38;;;;;;;6.91;100.00;101255.47;5030068;28;20082;-64
2022/11/25 08:03:16;;;;;;;8.82;3.20;;;;;;;6.91;100.00;101260.66;5023908;28;20140;-64
2022/11/25 08:05:42;;;;;;;10.27;3.28;;;;;;;6.93;100.00;101261.59;5031667;28;20025;-64
2022/11/25 08:08:07;;;;;;;9.75;3.10;;;;;;;6.95;100.00;101270.31;5041626;28;20022;-64
2022/11/25 08:10:32;;;;;;;10.00;4.03;;;;;;;6.96;100.00;101279.84;5043931;28;20021;-64
2022/11/25 08:12:57;;;;;;;8.93;3.33;;;;;;;6.99;100.00;101272.22;5028264;28;20283;-64
2022/11/25 08:15:23;;;;;;;7.97;3.05;;;;;;;7.02;100.00;101282.72;5037874;28;20096;-64
2022/11/25 08:17:51;;;;;;;7.88;3.00;;;;;;;7.04;100.00;101285.38;5036988;28;20387;-66
2022/11/25 08:20:16;;;;;;;9.90;3.47;;;;;;;7.07;100.00;101295.91;5036848;28;20040;-66
2022/11/25 08:22:42;;;;;;;9.25;3.17;;;;;;;7.10;100.00;101293.44;5030475;28;20168;-66
2022/11/25 08:25:07;;;;;;;9.30;3.03;;;;;;;7.12;100.00;101297.84;5033937;28;20129;-66
2022/11/25 08:27:32;;;;;;;9.13;3.28;;;;;;;7.16;100.00;101298.03;5029959;28;20088;-66
2022/11/25 08:29:58;;;;;;;12.00;3.40;;;;;;;7.17;100.00;101290.31;5032614;28;20021;-67
2022/11/25 08:32:23;;;;;;;7.78;3.22;;;;;;;7.19;100.00;101295.56;5029096;28;20064;-67
2022/11/25 08:34:48;;;;;;;10.07;3.30;;;;;;;7.22;100.00;101303.47;5034694;28;20033;-66
2022/11/25 08:37:13;;;;;;;11.65;3.67;;;;;;;7.23;100.00;101300.94;5030530;28;20025;-67
2022/11/25 08:39:39;;;;;;;9.13;2.92;;;;;;;7.26;100.00;101305.38;5036066;28;20064;-67
2022/11/25 08:42:06;;;;;;;10.05;3.30;;;;;;;7.29;100.00;101305.50;5032274;28;20306;-66
2022/11/25 08:44:32;;;;;;;10.25;3.67;;;;;;;7.30;100.00;101302.13;5037952;28;20036;-67
2022/11/25 08:46:57;;;;;;;8.00;3.50;;;;;;;7.31;100.00;101304.78;5043840;28;20022;-66
2022/11/25 08:49:25;;;;;;;9.25;3.33;;;;;;;7.34;100.00;101295.34;5039063;28;20093;-66
2022/11/25 08:51:50;;;;;;;11.35;3.63;;;;;;;7.36;100.00;101302.38;5042361;28;20083;-67
2022/11/25 08:54:16;;;;;;;10.20;3.67;;;;;;;7.40;100.00;101308.56;5034517;28;20215;-67
2022/11/25 08:56:42;;;;;;;9.60;3.45;;;;;;;7.42;100.00;101307.81;5043741;28;20033;-66
2022/11/25 08:59:08;;;;;;;8.30;3.45;;;;;;;7.43;100.00;101311.28;5039754;28;20014;-66
2022/11/25 09:01:33;;;;;;;11.32;3.70;;;;;;;7.47;100.00;101313.19;5025724;28;20026;-67
2022/11/25 09:03:59;;;;;;;7.78;3.17;;;;;;;7.50;100.00;101315.91;5035716;28;20024;-66
2022/11/25 09:06:27;;;;;;;10.35;3.60;;;;;;;7.54;100.00;101317.84;5040012;28;20180;-66
2022/11/25 09:08:57;;;;;;;10.85;3.38;;;;;;;7.58;100.00;101324.06;5040671;28;20048;-67
2022/11/25 09:11:23;;;;;;;10.75;3.70;;;;;;;7.61;100.00;101332.84;5042763;28;20013;-67
2022/11/25 09:13:49;;;;;;;8.68;3.42;;;;;;;7.63;100.00;101333.81;5042925;28;20104;-67
2022/11/25 09:16:15;;;;;;;10.85;3.80;;;;;;;7.69;100.00;101333.19;5041185;28;20068;-64
2022/11/25 09:18:41;;;;;;;12.73;3.20;;;;;;;7.72;100.00;101329.81;5035251;28;20025;-64
2022/11/25 09:21:09;;;;;;;9.40;3.90;;;;;;;7.76;100.00;101342.09;5042131;28;20310;-64
2022/11/25 09:23:37;;;;;;;15.95;3.40;;;;;;;7.79;100.00;101343.16;5021071;28;20029;-64
2022/11/25 09:26:02;;;;;;;13.95;4.28;;;;;;;7.82;100.00;101340.69;5044805;28;20017;-64
2022/11/25 09:28:27;;;;;;;10.75;4.07;;;;;;;7.86;100.00;101346.88;5034447;28;20077;-64
2022/11/25 09:30:53;;;;;;;10.65;4.38;;;;;;;7.91;100.00;101358.34;5036242;28;20068;-64
2022/11/25 09:33:19;;;;;;;11.27;3.90;;;;;;;7.96;100.00;101349.03;5030048;28;20332;-64
2022/11/25 09:35:46;;;;;;;16.90;4.47;;;;;;;8.00;100.00;101363.91;5043162;28;20040;-64
2022/11/25 09:38:11;;;;;;;12.98;4.13;;;;;;;8.04;100.00;101353.66;5045544;28;20126;-64
2022/11/25 09:40:58;;;;;;;10.85;4.15;;;;;;;8.07;100.00;101372.84;5032183;28;20252;-64
2022/11/25 09:47:26;;;;;;;12.32;4.55;;;;;;;8.16;100.00;101377.53;5005078;28;20030;-67
2022/11/25 09:50:20;;;;;;;9.68;4.43;;;;;;;8.21;100.00;101380.31;5028570;28;20042;-67
2022/11/25 09:53:03;;;;;;;10.20;4.30;;;;;;;8.25;100.00;101385.72;5035720;28;20063;-67
2022/11/25 09:55:36;;;;;;;14.73;3.95;;;;;;;8.27;100.00;101391.88;5043148;28;20037;-66
2022/11/25 09:58:23;;;;;;;10.10;3.80;;;;;;;8.31;99.99;101387.66;5038067;28;20022;-67
2022/11/25 10:00:51;;;;;;;10.02;3.75;;;;;;;8.34;99.66;101398.19;5033368;28;20033;-67
2022/11/25 10:03:37;;;;;;;12.85;4.18;;;;;;;8.37;99.57;101403.50;5021020;28;20006;-67
2022/11/25 10:06:06;;;;;;;10.48;4.20;;;;;;;8.41;99.41;101397.63;5036245;28;20087;-67
2022/11/25 10:08:36;;;;;;;9.95;3.83;;;;;;;8.44;99.17;101404.66;5046618;28;20017;-67
2022/11/25 10:11:10;;;;;;;11.25;3.80;;;;;;;8.49;99.19;101401.47;5036192;28;20025;-67
2022/11/25 10:13:51;;;;;;;14.60;4.70;;;;;;;8.55;98.89;101412.94;5045381;28;20025;-67
2022/11/25 10:16:31;;;;;;;12.45;3.67;;;;;;;8.57;98.72;101411.28;5036651;28;20045;-67
2022/11/25 10:19:01;;;;;;;9.40;3.58;;;;;;;8.60;98.67;101420.06;5045559;28;20033;-67
2022/11/25 10:21:27;;;;;;;10.07;3.78;;;;;;;8.65;98.30;101428.06;5033196;28;21446;-66
2022/11/25 10:23:52;;;;;;;14.93;4.82;;;;;;;8.68;97.96;101436.84;5020479;28;20032;-67
2022/11/25 10:26:21;;;;;;;10.63;3.95;;;;;;;8.72;97.97;101440.47;5029789;28;20089;-66
2022/11/25 10:29:22;;;;;;;12.43;3.58;;;;;;;8.77;97.98;101435.47;5032843;28;20160;-67
2022/11/25 10:31:51;;;;;;;12.43;3.72;;;;;;;8.82;96.53;101436.53;5024718;28;20029;-67
2022/11/25 10:34:34;;;;;;;11.18;3.38;;;;;;;8.85;96.15;101445.34;5036299;28;20037;-67
2022/11/25 10:37:04;;;;;;;10.48;3.53;;;;;;;8.90;95.08;101444.66;5031741;28;20021;-66
2022/11/25 10:39:33;;;;;;;11.13;2.95;;;;;;;8.94;95.14;101449.16;5032508;28;20017;-67
2022/11/25 10:42:03;;;;;;;11.30;2.90;;;;;;;8.99;95.03;101450.19;5036275;28;20081;-67
2022/11/25 10:44:31;;;;;;;8.70;2.75;;;;;;;9.04;93.76;101456.47;5035980;28;20037;-67
2022/11/25 10:47:14;;;;;;;7.35;2.88;;;;;;;9.08;93.38;101465.28;5035968;28;20029;-67
2022/11/25 10:50:14;;;;;;;12.95;3.17;;;;;;;9.12;93.25;101461.97;5030459;28;20176;-67
2022/11/25 10:53:01;;;;;;;9.75;2.65;;;;;;;9.16;93.59;101461.28;4945176;29;20338;-67
2022/11/25 10:55:31;;;;;;;10.93;2.97;;;;;;;9.21;93.56;101459.72;5025180;28;20041;-67
2022/11/25 10:57:56;;;;;;;8.20;2.20;;;;;;;9.25;92.29;101468.53;5033946;28;20077;-67
2022/11/25 11:00:36;;;;;;;9.43;2.80;;;;;;;9.28;92.49;101468.66;5035809;28;20276;-67
2022/11/25 11:03:21;;;;;;;9.43;2.50;;;;;;;9.33;92.76;101475.81;5037307;28;20016;-66
2022/11/25 11:05:50;;;;;;;11.27;2.60;;;;;;;9.36;92.82;101470.72;5028487;28;20025;-67
2022/11/25 11:08:19;;;;;;;11.80;2.63;;;;;;;9.40;91.23;101470.03;5042203;28;20047;-67
2022/11/25 11:10:46;;;;;;;11.13;2.83;;;;;;;9.44;91.04;101476.22;5042396;28;20028;-68
2022/11/25 11:13:24;;;;;;;9.40;2.70;;;;;;;9.49;91.44;101473.81;5034562;28;20037;-67
2022/11/25 11:15:50;;;;;;;15.27;3.17;;;;;;;9.52;90.69;101476.53;5036040;28;20029;-67
2022/11/25 11:18:26;;;;;;;7.80;2.67;;;;;;;9.58;90.82;101485.44;5030047;28;20079;-67
2022/11/25 11:20:59;;;;;;;7.88;2.30;;;;;;;9.62;90.75;101485.59;5030449;28;20018;-67
2022/11/25 11:23:26;;;;;;;8.57;2.38;;;;;;;9.65;89.76;101493.50;5036611;28;20025;-67
2022/11/25 11:26:00;;;;;;;9.88;2.83;;;;;;;9.68;89.24;101499.69;5030811;28;20051;-66
2022/11/25 11:28:38;;;;;;;11.27;2.63;;;;;;;9.72;88.23;101500.72;5032146;28;20049;-67
2022/11/25 11:31:25;;;;;;;8.13;2.42;;;;;;;9.75;87.83;101509.50;5015261;28;20402;-67
2022/11/25 11:34:20;;;;;;;9.82;2.60;;;;;;;9.78;89.30;101511.34;5037369;28;20022;-67
2022/11/25 11:37:11;;;;;;;9.40;2.30;;;;;;;9.83;88.47;101511.50;5036478;28;20183;-67
2022/11/25 11:39:59;;;;;;;9.77;2.60;;;;;;;9.85;86.90;101517.66;5039684;28;20336;-67
2022/11/25 11:42:49;;;;;;;10.27;2.50;;;;;;;9.88;87.70;101523.88;5027574;28;20055;-66
2022/11/25 11:45:23;;;;;;;11.60;2.70;;;;;;;9.92;86.79;101527.44;5035417;28;20117;-67